createdAt,value
2023-02-11T09:08:37.760Z,96568.94
2023-02-11T09:16:46.467Z,96558.84
2023-02-11T09:19:21.891Z,96553.47
2023-02-11T09:21:51.717Z,96550.84
2023-02-11T09:24:27.443Z,96543.50
2023-02-11T09:26:55.747Z,96538.41
2023-02-11T09:29:22.428Z,96537.22
2023-02-11T09:31:50.044Z,96540.44
2023-02-11T09:34:24.956Z,96547.09
2023-02-11T09:39:40.872Z,96564.06
2023-02-11T09:42:37.588Z,96551.47
2023-02-11T09:51:00.408Z,96536.84
2023-02-11T09:53:29.868Z,96531.97
2023-02-11T09:55:59.558Z,96530.63
2023-02-11T09:58:30.036Z,96536.38
2023-02-11T10:01:04.035Z,96527.03
2023-02-11T10:03:48.115Z,96524.06
2023-02-11T10:06:38.971Z,96520.00
2023-02-11T10:09:21.595Z,96527.19
2023-02-11T10:11:55.837Z,96524.22
2023-02-11T10:14:43.546Z,96539.06
2023-02-11T10:17:21.004Z,96530.22
2023-02-11T10:20:02.038Z,96532.59
2023-02-11T10:22:33.639Z,96523.91
2023-02-11T10:25:06.048Z,96514.69
2023-02-11T10:27:34.767Z,96505.28
2023-02-11T10:30:11.796Z,96501.56
2023-02-11T10:32:44.075Z,96496.66
2023-02-11T10:35:15.415Z,96500.78
2023-02-11T10:37:44.450Z,96495.69
2023-02-11T10:40:14.539Z,96491.16
2023-02-11T10:42:44.239Z,96486.00
2023-02-11T10:45:22.105Z,96481.19
2023-02-11T10:47:48.813Z,96476.41
2023-02-11T10:50:22.850Z,96460.56
2023-02-11T10:52:50.025Z,96459.59
2023-02-11T10:55:18.246Z,96456.66
2023-02-11T10:57:52.570Z,96459.06
2023-02-11T11:00:37.082Z,96448.31
2023-02-11T11:03:05.875Z,96451.09
2023-02-11T11:05:35.915Z,96456.06
2023-02-11T11:08:05.515Z,96456.19
2023-02-11T11:10:36.153Z,96448.00
2023-02-11T11:13:03.272Z,96447.97
2023-02-11T11:15:30.985Z,96439.47
2023-02-11T11:18:21.954Z,96437.22
2023-02-11T11:20:58.497Z,96441.84
2023-02-11T11:23:25.940Z,96436.97
2023-02-11T11:26:02.609Z,96436.34
2023-02-11T11:28:33.250Z,96440.78
2023-02-11T11:31:01.070Z,96432.91
2023-02-11T11:33:33.788Z,96428.47
2023-02-11T11:36:05.223Z,96424.81
2023-02-11T11:38:34.683Z,96421.22
2023-02-11T11:41:28.484Z,96424.69
2023-02-11T11:43:57.489Z,96416.88
2023-02-11T11:46:26.856Z,96419.53
2023-02-11T11:49:00.851Z,96420.81
2023-02-11T11:51:29.178Z,96418.97
2023-02-11T11:54:00.653Z,96426.22
2023-02-11T11:56:30.194Z,96423.81
2023-02-11T11:58:57.171Z,96423.00
2023-02-11T12:01:34.722Z,96423.81
2023-02-11T12:04:43.915Z,96426.06
2023-02-11T12:07:26.839Z,96422.00
2023-02-11T12:10:09.920Z,96422.81
2023-02-11T12:12:46.503Z,96434.94
2023-02-11T12:15:29.301Z,96418.34
2023-02-11T12:18:17.379Z,96413.56
2023-02-11T12:21:03.678Z,96411.56
2023-02-11T12:23:44.412Z,96412.16
2023-02-11T12:26:15.781Z,96412.22
2023-02-11T12:28:55.416Z,96414.06
2023-02-11T12:31:35.285Z,96413.50
2023-02-11T12:34:24.502Z,96417.97
2023-02-11T12:37:03.015Z,96413.59
2023-02-11T12:39:40.165Z,96407.94
2023-02-11T12:42:45.421Z,96405.75
2023-02-11T12:45:27.958Z,96399.88
2023-02-11T12:48:07.343Z,96399.88
2023-02-11T12:50:42.401Z,96399.88
2023-02-11T12:53:25.772Z,96393.41
2023-02-11T12:56:05.062Z,96391.44
2023-02-11T12:58:44.917Z,96388.84
2023-02-11T13:01:20.693Z,96392.13
2023-02-11T13:03:53.382Z,96384.28
2023-02-11T13:06:27.683Z,96380.91
2023-02-11T13:09:00.352Z,96379.22
2023-02-11T13:11:30.211Z,96385.72
2023-02-11T13:14:02.150Z,96371.94
2023-02-11T13:16:35.331Z,96363.59
2023-02-11T13:19:10.227Z,96370.25
2023-02-11T13:22:00.456Z,96364.38
2023-02-11T13:24:34.699Z,96353.59
2023-02-11T13:27:10.570Z,96353.56
2023-02-11T13:29:49.379Z,96349.69
2023-02-11T13:32:16.143Z,96357.97
2023-02-11T13:34:58.094Z,96345.13
2023-02-11T13:37:27.418Z,96352.56
2023-02-11T13:40:01.709Z,96346.06
2023-02-11T13:42:32.919Z,96343.44
2023-02-11T13:45:01.502Z,96346.25
2023-02-11T13:47:37.915Z,96347.66
2023-02-11T13:50:08.297Z,96350.91
2023-02-11T13:52:41.144Z,96345.25
2023-02-11T13:55:19.826Z,96348.88
2023-02-11T13:58:17.383Z,96341.78
2023-02-11T14:00:53.443Z,96336.47
2023-02-11T14:04:19.943Z,96337.16
2023-02-11T14:07:45.519Z,96342.00
2023-02-11T14:11:01.103Z,96335.16
2023-02-11T14:13:33.639Z,96336.59
2023-02-11T14:16:09.404Z,96337.22
2023-02-11T14:18:59.589Z,96336.78
2023-02-11T14:21:37.704Z,96330.88
2023-02-11T14:24:45.011Z,96339.38
2023-02-11T14:27:21.798Z,96340.84
2023-02-11T14:30:03.380Z,96342.25
2023-02-11T14:32:47.743Z,96337.00
2023-02-11T14:35:38.344Z,96337.16
2023-02-11T14:38:15.694Z,96338.16
2023-02-11T14:40:54.157Z,96341.75
2023-02-11T14:43:29.367Z,96343.78
2023-02-11T14:46:05.989Z,96343.38
2023-02-11T14:48:39.720Z,96339.94
2023-02-11T14:51:11.313Z,96348.88
2023-02-11T14:53:43.581Z,96340.97
2023-02-11T14:56:19.557Z,96340.97
2023-02-11T14:58:57.605Z,96342.16
2023-02-11T15:01:40.830Z,96351.09
2023-02-11T15:04:36.514Z,96347.66
2023-02-11T15:09:53.217Z,96351.50
2023-02-11T15:12:40.605Z,96354.59
2023-02-11T15:15:13.062Z,96357.66
2023-02-11T15:17:44.442Z,96353.25
2023-02-11T15:20:25.857Z,96358.72
2023-02-11T15:22:57.992Z,96360.97
2023-02-11T15:25:28.287Z,96357.16
2023-02-11T15:28:18.283Z,96351.47
2023-02-11T15:31:05.787Z,96355.34
2023-02-11T15:33:38.622Z,96358.81
2023-02-11T15:36:16.284Z,96367.34
2023-02-11T15:38:43.818Z,96371.00
2023-02-11T15:41:34.886Z,96366.59
2023-02-11T15:44:02.359Z,96366.00
2023-02-11T15:46:38.279Z,96362.75
2023-02-11T15:49:11.658Z,96378.38
2023-02-11T15:54:30.122Z,96376.38
2023-02-11T15:57:03.561Z,96382.09
2023-02-11T15:59:35.275Z,96386.75
2023-02-11T16:02:10.362Z,96392.59
2023-02-11T16:04:39.552Z,96389.16
2023-02-11T16:07:38.700Z,96390.75
2023-02-11T16:10:21.727Z,96392.16
2023-02-11T16:12:57.856Z,96403.91
2023-02-11T16:15:43.378Z,96396.97
2023-02-11T16:18:37.686Z,96399.97
2023-02-11T16:21:13.071Z,96401.75
2023-02-11T16:23:44.547Z,96401.72
2023-02-11T16:26:22.581Z,96407.31
2023-02-11T16:28:52.428Z,96406.81
2023-02-11T16:31:19.905Z,96413.63
2023-02-11T16:33:47.881Z,96413.75
2023-02-11T16:36:24.555Z,96418.56
2023-02-11T16:38:54.162Z,96413.44
2023-02-11T16:41:21.455Z,96412.78
2023-02-11T16:43:48.484Z,96412.94
2023-02-11T16:46:16.726Z,96417.31
2023-02-11T16:48:45.837Z,96428.16
2023-02-11T16:51:14.226Z,96424.41
2023-02-11T16:53:43.451Z,96423.47
2023-02-11T16:56:17.033Z,96420.34
2023-02-11T16:58:44.512Z,96422.09
2023-02-11T17:01:13.938Z,96428.09
2023-02-11T17:03:41.189Z,96423.94
2023-02-11T17:06:11.698Z,96418.81
2023-02-11T17:08:39.529Z,96437.28
2023-02-11T17:11:07.636Z,96442.25
2023-02-11T17:13:36.172Z,96443.00
2023-02-11T17:16:03.270Z,96448.25
2023-02-11T17:18:30.421Z,96451.25
2023-02-11T17:20:57.150Z,96464.09
2023-02-11T17:23:24.380Z,96473.94
2023-02-11T17:25:57.189Z,96473.28
2023-02-11T17:28:25.794Z,96468.75
2023-02-11T17:30:52.703Z,96471.28
2023-02-11T17:33:19.467Z,96475.97
2023-02-11T17:35:46.624Z,96474.88
2023-02-11T17:38:13.387Z,96480.50
2023-02-11T17:40:40.121Z,96484.81
2023-02-11T17:43:08.364Z,96483.66
2023-02-11T17:45:41.102Z,96479.03
2023-02-11T17:48:08.156Z,96491.91
2023-02-11T17:50:36.336Z,96498.97
2023-02-11T17:53:03.374Z,96508.34
2023-02-11T17:55:33.189Z,96516.09
2023-02-11T17:58:01.795Z,96512.56
2023-02-11T18:00:29.349Z,96522.72
2023-02-11T18:03:03.957Z,96522.78
2023-02-11T18:05:35.020Z,96514.63
2023-02-11T18:08:02.835Z,96520.38
2023-02-11T18:10:30.527Z,96516.31
2023-02-11T18:12:59.519Z,96526.97
2023-02-11T18:15:26.991Z,96528.13
2023-02-11T18:17:53.803Z,96529.63
2023-02-11T18:20:22.404Z,96534.72
2023-02-11T18:22:49.534Z,96537.22
2023-02-11T18:25:17.600Z,96539.53
2023-02-11T18:27:44.698Z,96543.91
2023-02-11T18:30:15.598Z,96537.88
2023-02-11T18:32:42.751Z,96547.69
2023-02-11T18:35:14.796Z,96553.25
2023-02-11T18:37:43.500Z,96548.22
2023-02-11T18:40:12.219Z,96554.75
2023-02-11T18:42:39.919Z,96556.25
2023-02-11T18:45:10.445Z,96551.69
2023-02-11T18:47:41.399Z,96561.03
2023-02-11T18:50:12.294Z,96562.34
2023-02-11T18:52:39.893Z,96567.09
2023-02-11T18:55:09.744Z,96571.81
2023-02-11T18:57:37.078Z,96567.94
2023-02-11T19:00:04.803Z,96559.59
2023-02-11T19:02:32.174Z,96563.03
2023-02-11T19:05:01.264Z,96569.72
2023-02-11T19:07:28.025Z,96579.03
2023-02-11T19:09:55.691Z,96576.69
2023-02-11T19:12:27.137Z,96574.41
2023-02-11T19:14:55.972Z,96574.25
2023-02-11T19:17:23.144Z,96567.72
2023-02-11T19:19:50.931Z,96565.72
2023-02-11T19:22:19.362Z,96573.22
2023-02-11T19:24:48.491Z,96570.81
2023-02-11T19:27:15.361Z,96577.03
2023-02-11T19:29:43.839Z,96579.44
2023-02-11T19:32:12.620Z,96580.78
2023-02-11T19:34:41.845Z,96583.09
2023-02-11T19:37:11.096Z,96578.81
2023-02-11T19:39:37.964Z,96578.81
2023-02-11T19:42:05.288Z,96579.31
2023-02-11T19:44:32.306Z,96564.00
2023-02-11T19:47:01.227Z,96567.81
2023-02-11T19:49:28.437Z,96566.03
2023-02-11T19:51:58.269Z,96556.56
2023-02-11T19:54:32.009Z,96557.22
2023-02-11T19:57:00.746Z,96562.44
2023-02-11T19:59:27.673Z,96569.13
2023-02-11T20:01:54.712Z,96572.88
2023-02-11T20:04:25.468Z,96573.22
2023-02-11T20:06:52.417Z,96567.66
2023-02-11T20:09:19.940Z,96571.41
2023-02-11T20:11:46.815Z,96567.47
2023-02-11T20:14:17.772Z,96565.38
2023-02-11T20:16:49.228Z,96561.78
2023-02-11T20:19:25.885Z,96561.13
2023-02-11T20:21:55.850Z,96562.59
2023-02-11T20:24:24.506Z,96558.84
2023-02-11T20:26:55.732Z,96559.50
2023-02-11T20:29:34.894Z,96560.78
2023-02-11T20:32:03.812Z,96551.34
2023-02-11T20:34:38.459Z,96556.69
2023-02-11T20:37:09.432Z,96560.78
2023-02-11T20:39:37.610Z,96558.50
2023-02-11T20:42:05.794Z,96558.03
2023-02-11T20:44:32.641Z,96556.22
2023-02-11T20:46:59.421Z,96563.25
2023-02-11T20:49:28.346Z,96563.72
2023-02-11T20:51:56.993Z,96561.59
2023-02-11T20:54:26.255Z,96559.16
2023-02-11T20:56:55.274Z,96565.97
2023-02-11T20:59:24.877Z,96562.22
2023-02-11T21:01:55.954Z,96568.56
2023-02-11T21:04:25.317Z,96568.22
2023-02-11T21:06:55.699Z,96581.91
2023-02-11T21:09:26.008Z,96575.50
2023-02-11T21:11:54.217Z,96575.34
2023-02-11T21:14:23.390Z,96570.78
2023-02-11T21:16:52.292Z,96572.38
2023-02-11T21:19:20.444Z,96570.91
2023-02-11T21:21:47.901Z,96578.56
2023-02-11T21:24:15.994Z,96583.47
2023-02-11T21:26:46.301Z,96587.69
2023-02-11T21:29:13.138Z,96589.31
2023-02-11T21:31:40.794Z,96582.97
2023-02-11T21:34:08.226Z,96582.81
2023-02-11T21:36:35.408Z,96585.28
2023-02-11T21:39:03.966Z,96591.81
2023-02-11T21:41:31.975Z,96590.53
2023-02-11T21:44:00.805Z,96590.88
2023-02-11T21:46:28.344Z,96591.03
2023-02-11T21:48:55.192Z,96591.56
2023-02-11T21:51:26.791Z,96592.19
2023-02-11T21:53:55.638Z,96596.28
2023-02-11T21:56:26.708Z,96590.09
2023-02-11T21:58:56.317Z,96596.94
2023-02-11T22:01:26.625Z,96588.78
2023-02-11T22:03:53.547Z,96590.09
2023-02-11T22:06:22.932Z,96594.16
2023-02-11T22:08:50.825Z,96595.25
2023-02-11T22:11:18.740Z,96601.72
2023-02-11T22:13:46.789Z,96599.41
2023-02-11T22:16:17.210Z,96596.59
2023-02-11T22:18:46.493Z,96596.56
2023-02-11T22:21:23.239Z,96599.50
2023-02-11T22:23:56.553Z,96597.34
2023-02-11T22:26:25.796Z,96588.03
2023-02-11T22:28:57.502Z,96587.91
2023-02-11T22:31:33.069Z,96588.41
2023-02-11T22:34:05.417Z,96591.50
2023-02-11T22:36:34.936Z,96586.28
2023-02-11T22:39:04.950Z,96589.88
2023-02-11T22:41:32.319Z,96588.53
2023-02-11T22:43:59.561Z,96587.72
2023-02-11T22:46:28.046Z,96585.31
2023-02-11T22:48:55.340Z,96585.94
2023-02-11T22:51:26.418Z,96600.31
2023-02-11T22:53:55.434Z,96595.25
2023-02-11T22:56:24.588Z,96596.94
2023-02-11T22:58:53.813Z,96588.69
2023-02-11T23:01:21.228Z,96592.22
2023-02-11T23:03:48.415Z,96599.09
2023-02-11T23:06:15.793Z,96598.47
2023-02-11T23:08:45.139Z,96601.28
2023-02-11T23:11:14.541Z,96597.22
2023-02-11T23:13:43.264Z,96596.88
2023-02-11T23:16:13.924Z,96609.59
2023-02-11T23:18:42.890Z,96613.19
2023-02-11T23:21:13.250Z,96601.94
2023-02-11T23:23:42.987Z,96596.88
2023-02-11T23:26:14.612Z,96598.03
2023-02-11T23:28:42.107Z,96593.75
2023-02-11T23:31:14.980Z,96599.66
2023-02-11T23:33:42.581Z,96591.00
2023-02-11T23:36:10.396Z,96598.03
2023-02-11T23:38:37.535Z,96602.25
2023-02-11T23:41:05.592Z,96602.59
2023-02-11T23:43:39.048Z,96607.84
2023-02-11T23:46:07.476Z,96604.75
2023-02-11T23:48:36.370Z,96604.13
2023-02-11T23:51:04.418Z,96607.25
2023-02-11T23:53:31.890Z,96600.72
2023-02-11T23:55:58.776Z,96602.50
2023-02-11T23:58:25.699Z,96603.97
